^^
Your Local Weather - Clay, NY Station Historical Data
Daily Summary for September 3, 2017 Units:  English    Metric   Both
« Previous Day
Next Day »
Daily Weekly Monthly Yearly Custom
  High: Low: Average:
Temperature: 65.3 °F 51.5 °F 56.7 °F
Dew Point: 61.6 °F 49.1 °F 53.4 °F
Humidity: 94% 73% 89%
Wind Speed: 4.0mph 0.0mph 1.4mph
Wind Gust: 9.0mph - -
Wind- - SSE
Pressure: 30.00 in 29.76 in -
Precipitation: 0.34 in    
Historical Graphs
 
 
Tabular Data for September 3, 2017
Time Temperature Dew Point Pressure Wind Wind Speed Wind Gust Humidity Rainfall Rate (Hourly) solar
00:04 55.0 °F 50.6 °F 30.00 in ENE 1.0 mph 1.0 mph 85% 0.00 in 0 W/m2
00:06 54.8 °F 50.1 °F 30.00 in SSE 1.0 mph 3.0 mph 84% 0.00 in 0 W/m2
00:12 54.7 °F 49.6 °F 30.00 in SSE 1.0 mph 1.0 mph 83% 0.00 in 0 W/m2
00:18 54.6 °F 49.5 °F 29.98 in Calm   1.0 mph 83% 0.00 in 0 W/m2
00:24 54.7 °F 50.0 °F 29.99 in Calm     84% 0.00 in 0 W/m2
00:30 54.7 °F 50.3 °F 29.98 in Calm     85% 0.00 in 0 W/m2
00:36 54.5 °F 50.4 °F 29.98 in Calm     86% 0.00 in 0 W/m2
00:42 54.6 °F 50.8 °F 29.98 in Calm   2.0 mph 87% 0.00 in 0 W/m2
00:48 54.6 °F 50.8 °F 29.97 in Calm   2.0 mph 87% 0.00 in 0 W/m2
00:54 54.6 °F 50.8 °F 29.98 in Calm     87% 0.00 in 0 W/m2
01:00 54.4 °F 50.6 °F 29.98 in Calm     87% 0.00 in 0 W/m2
01:06 54.4 °F 50.6 °F 29.97 in Calm     87% 0.00 in 0 W/m2
01:12 54.5 °F 50.7 °F 29.98 in Calm     87% 0.00 in 0 W/m2
01:18 54.4 °F 50.6 °F 29.97 in Calm     87% 0.00 in 0 W/m2
01:24 54.5 °F 51.0 °F 29.97 in Calm     88% 0.00 in 0 W/m2
01:30 54.4 °F 51.2 °F 29.96 in Calm     89% 0.00 in 0 W/m2
01:36 54.3 °F 50.8 °F 29.96 in ESE 1.0 mph 4.0 mph 88% 0.00 in 0 W/m2
01:42 54.4 °F 50.6 °F 29.95 in SE 1.0 mph 3.0 mph 87% 0.00 in 0 W/m2
01:48 54.5 °F 50.1 °F 29.96 in SSE 1.0 mph 4.0 mph 85% 0.00 in 0 W/m2
01:54 54.8 °F 50.1 °F 29.96 in SE 1.0 mph 2.0 mph 84% 0.00 in 0 W/m2
02:00 55.1 °F 50.0 °F 29.95 in SE 2.0 mph 3.0 mph 83% 0.00 in 0 W/m2
02:06 55.1 °F 50.0 °F 29.95 in SSE 1.0 mph 3.0 mph 83% 0.00 in 0 W/m2
02:12 55.1 °F 50.0 °F 29.95 in SSE 1.0 mph 1.0 mph 83% 0.00 in 0 W/m2
02:18 54.9 °F 50.2 °F 29.95 in Calm   2.0 mph 84% 0.00 in 0 W/m2
02:24 54.6 °F 50.2 °F 29.94 in ESE 1.0 mph 1.0 mph 85% 0.00 in 0 W/m2
02:30 54.5 °F 50.4 °F 29.94 in Calm     86% 0.00 in 0 W/m2
02:36 54.4 °F 50.3 °F 29.94 in ENE 1.0 mph 1.0 mph 86% 0.00 in 0 W/m2
02:42 54.2 °F 50.1 °F 29.94 in SSE 1.0 mph 4.0 mph 86% 0.00 in 0 W/m2
02:48 54.1 °F 50.3 °F 29.94 in SE 1.0 mph 4.0 mph 87% 0.15 in 0 W/m2
02:54 53.9 °F 50.1 °F 29.93 in South 1.0 mph 3.0 mph 87% 0.10 in 0 W/m2
03:00 53.7 °F 50.2 °F 29.92 in ESE 1.0 mph 1.0 mph 88% 0.07 in 0 W/m2
03:06 53.5 °F 50.0 °F 29.92 in SE 1.0 mph 1.0 mph 88% 0.06 in 0 W/m2
03:12 53.4 °F 50.2 °F 29.92 in SSE 1.0 mph 2.0 mph 89% 0.04 in 0 W/m2
03:18 53.3 °F 50.1 °F 29.92 in ESE 2.0 mph 5.0 mph 89% 0.00 in 0 W/m2
03:24 53.2 °F 50.0 °F 29.91 in East 2.0 mph 2.0 mph 89% 0.00 in 0 W/m2
03:30 53.1 °F 49.9 °F 29.91 in ENE 2.0 mph 5.0 mph 89% 0.00 in 0 W/m2
03:36 53.0 °F 49.8 °F 29.91 in SE 2.0 mph 5.0 mph 89% 0.00 in 0 W/m2
03:42 52.9 °F 49.7 °F 29.91 in ENE 2.0 mph 3.0 mph 89% 0.00 in 0 W/m2
03:48 52.8 °F 49.9 °F 29.91 in ENE 2.0 mph 3.0 mph 90% 0.00 in 0 W/m2
03:54 52.8 °F 49.9 °F 29.91 in East 2.0 mph 4.0 mph 90% 0.00 in 0 W/m2
04:00 52.8 °F 49.9 °F 29.91 in SSE 2.0 mph 2.0 mph 90% 0.00 in 0 W/m2
04:06 52.6 °F 49.8 °F 29.90 in ENE 3.0 mph 3.0 mph 90% 0.00 in 0 W/m2
04:12 52.6 °F 49.8 °F 29.90 in SE 2.0 mph 3.0 mph 90% 0.00 in 0 W/m2
04:18 52.5 °F 49.7 °F 29.91 in SE 1.0 mph 3.0 mph 90% 0.00 in 0 W/m2
04:24 52.4 °F 49.6 °F 29.91 in East 1.0 mph 1.0 mph 90% 0.00 in 0 W/m2
04:30 52.3 °F 49.5 °F 29.91 in ENE 2.0 mph 2.0 mph 90% 0.00 in 0 W/m2
04:36 52.1 °F 49.3 °F 29.90 in East 2.0 mph 5.0 mph 90% 0.00 in 0 W/m2
04:42 52.1 °F 49.3 °F 29.90 in SE 2.0 mph 2.0 mph 90% 0.00 in 0 W/m2
04:48 52.1 °F 49.3 °F 29.90 in East 1.0 mph 4.0 mph 90% 0.00 in 0 W/m2
04:54 52.0 °F 49.2 °F 29.90 in ESE 2.0 mph 2.0 mph 90% 0.00 in 0 W/m2
05:00 51.9 °F 49.1 °F 29.90 in ESE 2.0 mph 2.0 mph 90% 0.00 in 0 W/m2
05:06 51.9 °F 49.1 °F 29.90 in SE 2.0 mph 3.0 mph 90% 0.00 in 0 W/m2
05:14 51.9 °F 49.1 °F 29.90 in ENE 1.0 mph 3.0 mph 90% 0.00 in 0 W/m2
05:20 51.8 °F 49.3 °F 29.90 in NE 1.0 mph 2.0 mph 91% 0.00 in 0 W/m2
05:26 51.7 °F 49.2 °F 29.90 in NE 1.0 mph 2.0 mph 91% 0.00 in 0 W/m2
05:32 51.7 °F 49.2 °F 29.89 in ENE 1.0 mph 2.0 mph 91% 0.04 in 0 W/m2
05:38 51.6 °F 49.1 °F 29.89 in SSE 1.0 mph 2.0 mph 91% 0.04 in 0 W/m2
05:44 51.6 °F 49.1 °F 29.89 in East 1.0 mph 3.0 mph 91% 0.04 in 0 W/m2
05:50 51.6 °F 49.1 °F 29.89 in ENE 1.0 mph 1.0 mph 91% 0.04 in 0 W/m2
05:56 51.6 °F 49.1 °F 29.89 in SE 1.0 mph 1.0 mph 91% 0.08 in 0 W/m2
06:02 51.6 °F 49.4 °F 29.89 in ENE 1.0 mph 1.0 mph 92% 0.06 in 0 W/m2
06:08 51.6 °F 49.4 °F 29.88 in SE 1.0 mph 3.0 mph 92% 0.06 in 0 W/m2
06:14 51.5 °F 49.3 °F 29.88 in ENE 2.0 mph 5.0 mph 92% 0.10 in 0 W/m2
06:20 51.6 °F 49.4 °F 29.88 in SSE 2.0 mph 2.0 mph 92% 0.07 in 0 W/m2
06:26 51.6 °F 49.4 °F 29.88 in East 2.0 mph 3.0 mph 92% 0.11 in 0 W/m2
06:32 51.6 °F 49.4 °F 29.88 in East 2.0 mph 2.0 mph 92% 0.06 in 0 W/m2
06:38 51.6 °F 49.4 °F 29.87 in ENE 2.0 mph 4.0 mph 92% 0.04 in 0 W/m2
06:44 51.6 °F 49.4 °F 29.88 in East 2.0 mph 3.0 mph 92% 0.04 in 0 W/m2
06:50 51.6 °F 49.4 °F 29.87 in ENE 2.0 mph 2.0 mph 92% 0.04 in 0 W/m2
06:56 51.6 °F 49.6 °F 29.87 in ENE 1.0 mph 4.0 mph 93% 0.04 in 5 W/m2
07:02 51.6 °F 49.6 °F 29.87 in SSE 2.0 mph 2.0 mph 93% 0.04 in 7 W/m2
07:08 51.7 °F 49.7 °F 29.87 in ENE 1.0 mph 2.0 mph 93% 0.04 in 7 W/m2
07:14 51.6 °F 49.6 °F 29.87 in East 2.0 mph 6.0 mph 93% 0.00 in 12 W/m2
07:20 51.6 °F 49.6 °F 29.87 in SSE 2.0 mph 2.0 mph 93% 0.00 in 25 W/m2
07:26 51.6 °F 49.6 °F 29.87 in ENE 2.0 mph 3.0 mph 93% 0.00 in 21 W/m2
07:32 51.6 °F 49.6 °F 29.87 in East 2.0 mph 4.0 mph 93% 0.00 in 19 W/m2
07:38 51.6 °F 49.6 °F 29.87 in ENE 3.0 mph 4.0 mph 93% 0.00 in 19 W/m2
07:44 51.5 °F 49.5 °F 29.87 in NE 3.0 mph 4.0 mph 93% 0.00 in 23 W/m2
07:50 51.6 °F 49.6 °F 29.87 in ENE 2.0 mph 2.0 mph 93% 0.00 in 25 W/m2
07:56 51.6 °F 49.6 °F 29.86 in South 2.0 mph 3.0 mph 93% 0.00 in 32 W/m2
08:02 51.7 °F 49.7 °F 29.86 in ENE 2.0 mph 3.0 mph 93% 0.00 in 32 W/m2
08:08 51.7 °F 49.7 °F 29.86 in ENE 2.0 mph 7.0 mph 93% 0.00 in 37 W/m2
08:14 51.7 °F 49.7 °F 29.86 in ENE 3.0 mph 3.0 mph 93% 0.00 in 39 W/m2
08:20 51.8 °F 49.8 °F 29.86 in ENE 2.0 mph 3.0 mph 93% 0.00 in 42 W/m2
08:28 51.9 °F 49.9 °F 29.85 in East 2.0 mph 3.0 mph 93% 0.00 in 44 W/m2
08:34 51.9 °F 49.9 °F 29.85 in NE 2.0 mph 4.0 mph 93% 0.00 in 51 W/m2
08:40 51.9 °F 49.9 °F 29.85 in East 2.0 mph 5.0 mph 93% 0.00 in 51 W/m2
08:46 52.0 °F 50.0 °F 29.85 in ENE 2.0 mph 5.0 mph 93% 0.00 in 44 W/m2
08:52 51.9 °F 49.9 °F 29.84 in NNE 2.0 mph 2.0 mph 93% 0.00 in 42 W/m2
08:58 51.9 °F 49.9 °F 29.84 in ENE 2.0 mph 4.0 mph 93% 0.00 in 40 W/m2
09:04 51.9 °F 49.9 °F 29.84 in ENE 3.0 mph 7.0 mph 93% 0.00 in 42 W/m2
09:10 51.9 °F 49.9 °F 29.84 in ESE 2.0 mph 2.0 mph 93% 0.19 in 53 W/m2
09:16 52.0 °F 50.3 °F 29.84 in NE 2.0 mph 3.0 mph 94% 0.18 in 49 W/m2
09:22 52.1 °F 50.4 °F 29.84 in ESE 2.0 mph 3.0 mph 94% 0.08 in 49 W/m2
09:28 52.2 °F 50.5 °F 29.84 in ENE 1.0 mph 3.0 mph 94% 0.07 in 58 W/m2
09:34 52.3 °F 50.6 °F 29.84 in ENE 1.0 mph 2.0 mph 94% 0.05 in 86 W/m2
09:40 52.5 °F 50.8 °F 29.84 in NE 1.0 mph 1.0 mph 94% 0.05 in 67 W/m2
09:46 52.6 °F 50.9 °F 29.84 in ENE 1.0 mph 1.0 mph 94% 0.06 in 77 W/m2
09:52 52.7 °F 51.0 °F 29.84 in ENE 1.0 mph 4.0 mph 94% 0.06 in 49 W/m2
09:58 52.7 °F 51.0 °F 29.83 in East 1.0 mph 4.0 mph 94% 0.06 in 77 W/m2
10:04 52.8 °F 51.1 °F 29.83 in ENE 1.0 mph 3.0 mph 94% 0.06 in 56 W/m2
10:10 52.8 °F 51.1 °F 29.83 in NE 1.0 mph 1.0 mph 94% 0.04 in 60 W/m2
10:16 52.8 °F 51.1 °F 29.83 in NE 2.0 mph 2.0 mph 94% 0.00 in 70 W/m2
10:22 53.0 °F 51.3 °F 29.83 in ENE 2.0 mph 6.0 mph 94% 0.00 in 81 W/m2
10:28 53.2 °F 51.5 °F 29.83 in ENE 1.0 mph 6.0 mph 94% 0.00 in 76 W/m2
10:33 53.2 °F 51.5 °F 29.83 in ENE 1.0 mph 3.0 mph 94% 0.00 in 86 W/m2
10:40 53.3 °F 51.6 °F 29.83 in ENE 1.0 mph 1.0 mph 94% 0.00 in 81 W/m2
10:46 53.6 °F 51.9 °F 29.82 in ESE 1.0 mph 1.0 mph 94% 0.00 in 91 W/m2
10:52 53.6 °F 51.9 °F 29.82 in SE 1.0 mph 1.0 mph 94% 0.00 in 97 W/m2
10:58 53.8 °F 52.1 °F 29.82 in SE 1.0 mph 3.0 mph 94% 0.00 in 113 W/m2
11:04 53.9 °F 52.2 °F 29.81 in ESE 1.0 mph 1.0 mph 94% 0.00 in 81 W/m2
11:10 54.0 °F 52.3 °F 29.81 in East 1.0 mph 2.0 mph 94% 0.00 in 69 W/m2
11:16 54.0 °F 52.3 °F 29.81 in ENE 2.0 mph 2.0 mph 94% 0.00 in 77 W/m2
11:22 54.1 °F 52.4 °F 29.81 in East 1.0 mph 1.0 mph 94% 0.00 in 77 W/m2
11:28 54.3 °F 52.6 °F 29.81 in ENE 1.0 mph 1.0 mph 94% 0.00 in 67 W/m2
11:36 54.3 °F 52.6 °F 29.81 in ENE 1.0 mph 5.0 mph 94% 0.00 in 100 W/m2
11:42 54.6 °F 52.9 °F 29.81 in NE 1.0 mph 1.0 mph 94% 0.06 in 100 W/m2
11:48 54.7 °F 53.0 °F 29.81 in NE 1.0 mph 2.0 mph 94% 0.06 in 56 W/m2
11:54 54.7 °F 53.0 °F 29.81 in East 1.0 mph 1.0 mph 94% 0.04 in 58 W/m2
12:00 54.7 °F 53.0 °F 29.81 in East 1.0 mph 1.0 mph 94% 0.04 in 76 W/m2
12:06 54.9 °F 53.2 °F 29.81 in SSE 2.0 mph 2.0 mph 94% 0.04 in 54 W/m2
12:12 55.0 °F 53.3 °F 29.81 in ESE 1.0 mph 1.0 mph 94% 0.00 in 37 W/m2
12:18 54.9 °F 53.2 °F 29.81 in NE 1.0 mph 1.0 mph 94% 0.00 in 56 W/m2
12:24 55.0 °F 53.3 °F 29.81 in NE 1.0 mph 1.0 mph 94% 0.00 in 97 W/m2
12:30 55.3 °F 53.6 °F 29.80 in Calm     94% 0.00 in 65 W/m2
12:36 55.5 °F 53.8 °F 29.80 in Calm   2.0 mph 94% 0.00 in 105 W/m2
12:42 55.7 °F 54.0 °F 29.80 in Calm     94% 0.00 in 98 W/m2
12:48 55.7 °F 54.0 °F 29.80 in ENE 1.0 mph 2.0 mph 94% 0.00 in 65 W/m2
12:54 55.9 °F 54.2 °F 29.80 in ENE 1.0 mph 1.0 mph 94% 0.00 in 98 W/m2
13:00 56.1 °F 54.4 °F 29.80 in Calm   2.0 mph 94% 0.00 in 105 W/m2
13:06 56.2 °F 54.5 °F 29.80 in ESE 1.0 mph 2.0 mph 94% 0.00 in 86 W/m2
13:12 56.3 °F 54.6 °F 29.80 in Calm   1.0 mph 94% 0.00 in 53 W/m2
13:18 56.5 °F 54.8 °F 29.80 in Calm   1.0 mph 94% 0.00 in 139 W/m2
13:24 56.7 °F 55.0 °F 29.80 in Calm   2.0 mph 94% 0.00 in 141 W/m2
13:30 56.9 °F 55.2 °F 29.80 in Calm     94% 0.04 in 114 W/m2
13:36 57.1 °F 55.4 °F 29.80 in Calm   1.0 mph 94% 0.04 in 111 W/m2
13:42 57.3 °F 55.6 °F 29.80 in Calm     94% 0.00 in 141 W/m2
13:48 57.7 °F 56.0 °F 29.79 in Calm     94% 0.00 in 113 W/m2
13:54 57.9 °F 56.2 °F 29.79 in Calm     94% 0.00 in 146 W/m2
14:00 58.1 °F 56.4 °F 29.79 in Calm     94% 0.00 in 142 W/m2
14:06 58.5 °F 56.8 °F 29.79 in Calm     94% 0.00 in 160 W/m2
14:12 58.9 °F 57.2 °F 29.78 in Calm   1.0 mph 94% 0.00 in 216 W/m2
14:18 59.5 °F 57.8 °F 29.78 in Calm   1.0 mph 94% 0.00 in 327 W/m2
14:24 60.3 °F 58.6 °F 29.78 in Calm   1.0 mph 94% 0.00 in 341 W/m2
14:30 60.7 °F 59.0 °F 29.78 in Calm     94% 0.00 in 327 W/m2
14:36 61.1 °F 59.4 °F 29.78 in Calm   1.0 mph 94% 0.00 in 322 W/m2
14:42 61.9 °F 60.2 °F 29.78 in SSE 1.0 mph 4.0 mph 94% 0.00 in 297 W/m2
14:48 61.9 °F 60.2 °F 29.78 in SW 2.0 mph 4.0 mph 94% 0.00 in 327 W/m2
14:54 62.5 °F 60.4 °F 29.78 in SW 2.0 mph 2.0 mph 93% 0.00 in 461 W/m2
15:00 64.3 °F 61.6 °F 29.77 in Calm     91% 0.00 in 691 W/m2
15:06 64.6 °F 60.0 °F 29.77 in SW 1.0 mph 4.0 mph 85% 0.00 in 246 W/m2
15:12 64.5 °F 59.6 °F 29.77 in SW 2.0 mph 4.0 mph 84% 0.00 in 290 W/m2
15:18 64.6 °F 59.3 °F 29.77 in SSE 2.0 mph 4.0 mph 83% 0.00 in 315 W/m2
15:24 64.7 °F 59.1 °F 29.77 in South 2.0 mph 2.0 mph 82% 0.00 in 288 W/m2
15:30 64.8 °F 58.8 °F 29.77 in SSW 2.0 mph 2.0 mph 81% 0.00 in 236 W/m2
15:36 64.9 °F 59.3 °F 29.76 in South 1.0 mph 3.0 mph 82% 0.00 in 116 W/m2
15:42 64.7 °F 58.7 °F 29.76 in SW 2.0 mph 4.0 mph 81% 0.00 in 109 W/m2
15:48 64.4 °F 58.4 °F 29.76 in SW 2.0 mph 4.0 mph 81% 0.00 in 93 W/m2
15:54 64.2 °F 58.2 °F 29.76 in SW 1.0 mph 2.0 mph 81% 0.00 in 65 W/m2
16:00 64.0 °F 58.7 °F 29.76 in South 1.0 mph 4.0 mph 83% 0.00 in 90 W/m2
16:06 63.7 °F 58.8 °F 29.77 in WSW 2.0 mph 5.0 mph 84% 0.00 in 62 W/m2
16:12 62.9 °F 57.0 °F 29.77 in SW 4.0 mph 6.0 mph 81% 0.00 in 39 W/m2
16:18 62.2 °F 56.6 °F 29.76 in WSW 4.0 mph 9.0 mph 82% 0.06 in 56 W/m2
16:24 61.5 °F 56.0 °F 29.76 in WSW 4.0 mph 4.0 mph 82% 0.06 in 127 W/m2
16:32 62.6 °F 57.4 °F 29.76 in WSW 2.0 mph 3.0 mph 83% 0.04 in 538 W/m2
16:38 63.6 °F 58.0 °F 29.76 in SW 2.0 mph 4.0 mph 82% 0.00 in 387 W/m2
16:44 64.5 °F 58.9 °F 29.76 in WSW 2.0 mph 2.0 mph 82% 0.00 in 457 W/m2
16:50 65.3 °F 59.7 °F 29.76 in SW 1.0 mph 3.0 mph 82% 0.00 in 455 W/m2
16:56 64.9 °F 58.2 °F 29.76 in SW 2.0 mph 3.0 mph 79% 0.00 in 121 W/m2
17:02 64.3 °F 58.7 °F 29.76 in West 2.0 mph 3.0 mph 82% 0.00 in 141 W/m2
17:08 64.1 °F 58.8 °F 29.77 in WSW 1.0 mph 4.0 mph 83% 0.00 in 192 W/m2
17:14 63.9 °F 58.6 °F 29.77 in WSW 2.0 mph 4.0 mph 83% 0.00 in 178 W/m2
17:20 64.0 °F 59.1 °F 29.77 in WSW 2.0 mph 4.0 mph 84% 0.00 in 424 W/m2
17:26 64.7 °F 59.1 °F 29.76 in WSW 2.0 mph 4.0 mph 82% 0.00 in 267 W/m2
17:32 65.0 °F 59.0 °F 29.76 in WSW 2.0 mph 3.0 mph 81% 0.00 in 148 W/m2
17:38 65.1 °F 59.1 °F 29.77 in SSW 1.0 mph 3.0 mph 81% 0.00 in 244 W/m2
17:44 65.1 °F 58.1 °F 29.77 in SW 1.0 mph 3.0 mph 78% 0.00 in 167 W/m2
17:50 65.1 °F 56.2 °F 29.77 in NW 2.0 mph 2.0 mph 73% 0.00 in 127 W/m2
17:56 65.0 °F 56.9 °F 29.78 in NW 1.0 mph 2.0 mph 75% 0.00 in 102 W/m2
18:02 64.8 °F 56.7 °F 29.78 in Calm   1.0 mph 75% 0.00 in 76 W/m2
18:08 64.5 °F 56.4 °F 29.78 in Calm   1.0 mph 75% 0.00 in 65 W/m2
18:14 64.3 °F 56.6 °F 29.78 in Calm   2.0 mph 76% 0.00 in 40 W/m2
18:20 64.0 °F 56.3 °F 29.78 in Calm     76% 0.00 in 39 W/m2
18:26 63.8 °F 56.4 °F 29.79 in Calm   1.0 mph 77% 0.00 in 76 W/m2
18:32 63.8 °F 56.4 °F 29.79 in West 1.0 mph 2.0 mph 77% 0.00 in 67 W/m2
18:38 63.7 °F 56.7 °F 29.79 in SW 2.0 mph 6.0 mph 78% 0.00 in 81 W/m2
18:44 63.8 °F 56.8 °F 29.79 in WSW 2.0 mph 3.0 mph 78% 0.00 in 77 W/m2
18:50 63.7 °F 56.7 °F 29.79 in SW 2.0 mph 2.0 mph 78% 0.00 in 58 W/m2
18:56 63.5 °F 56.9 °F 29.80 in WSW 3.0 mph 7.0 mph 79% 0.00 in 40 W/m2
19:02 63.0 °F 56.7 °F 29.79 in SW 3.0 mph 6.0 mph 80% 0.00 in 23 W/m2
19:08 62.4 °F 56.5 °F 29.79 in SW 3.0 mph 6.0 mph 81% 0.00 in 16 W/m2
19:14 61.7 °F 56.1 °F 29.80 in SW 3.0 mph 4.0 mph 82% 0.00 in 11 W/m2
19:20 61.3 °F 56.1 °F 29.80 in SW 3.0 mph 4.0 mph 83% 0.00 in 9 W/m2
19:26 60.6 °F 55.7 °F 29.80 in WSW 4.0 mph 4.0 mph 84% 0.00 in 5 W/m2
19:32 60.1 °F 55.6 °F 29.80 in SSW 2.0 mph 4.0 mph 85% 0.00 in 0 W/m2
19:38 59.7 °F 55.2 °F 29.80 in SW 2.0 mph 4.0 mph 85% 0.00 in 0 W/m2
19:44 59.4 °F 55.2 °F 29.80 in WSW 2.0 mph 4.0 mph 86% 0.00 in 0 W/m2
19:50 59.1 °F 55.2 °F 29.81 in SW 2.0 mph 2.0 mph 87% 0.00 in 0 W/m2
19:56 58.9 °F 55.0 °F 29.80 in SW 2.0 mph 3.0 mph 87% 0.00 in 0 W/m2
20:02 58.8 °F 55.3 °F 29.81 in WSW 2.0 mph 3.0 mph 88% 0.00 in 0 W/m2
20:08 58.8 °F 55.3 °F 29.81 in SW 2.0 mph 3.0 mph 88% 0.00 in 0 W/m2
20:14 58.8 °F 55.3 °F 29.81 in SW 3.0 mph 4.0 mph 88% 0.00 in 0 W/m2
20:20 59.0 °F 55.4 °F 29.81 in SW 3.0 mph 3.0 mph 88% 0.00 in 0 W/m2
20:26 59.1 °F 55.5 °F 29.81 in WSW 3.0 mph 6.0 mph 88% 0.00 in 0 W/m2
20:32 59.1 °F 55.5 °F 29.81 in SSW 3.0 mph 5.0 mph 88% 0.00 in 0 W/m2
20:38 59.1 °F 55.5 °F 29.81 in SSW 2.0 mph 5.0 mph 88% 0.00 in 0 W/m2
20:44 59.0 °F 55.4 °F 29.81 in WSW 2.0 mph 6.0 mph 88% 0.00 in 0 W/m2
20:50 58.9 °F 55.4 °F 29.82 in WSW 2.0 mph 2.0 mph 88% 0.00 in 0 W/m2
20:56 58.9 °F 55.4 °F 29.82 in WSW 1.0 mph 2.0 mph 88% 0.00 in 0 W/m2
21:02 58.8 °F 55.3 °F 29.82 in WSW 2.0 mph 2.0 mph 88% 0.00 in 0 W/m2
21:08 58.8 °F 55.6 °F 29.82 in SW 3.0 mph 4.0 mph 89% 0.00 in 0 W/m2
21:14 58.9 °F 55.7 °F 29.82 in WSW 3.0 mph 3.0 mph 89% 0.00 in 0 W/m2
21:20 58.9 °F 55.7 °F 29.82 in WSW 2.0 mph 4.0 mph 89% 0.00 in 0 W/m2
21:26 59.0 °F 55.8 °F 29.82 in SW 3.0 mph 4.0 mph 89% 0.00 in 0 W/m2
21:32 59.0 °F 55.8 °F 29.82 in WSW 2.0 mph 3.0 mph 89% 0.00 in 0 W/m2
21:38 59.0 °F 55.8 °F 29.82 in SSW 2.0 mph 3.0 mph 89% 0.00 in 0 W/m2
21:44 59.0 °F 55.8 °F 29.82 in WSW 2.0 mph 3.0 mph 89% 0.00 in 0 W/m2
21:50 58.9 °F 55.7 °F 29.82 in SW 2.0 mph 2.0 mph 89% 0.00 in 0 W/m2
21:56 59.0 °F 55.8 °F 29.83 in WSW 2.0 mph 3.0 mph 89% 0.00 in 0 W/m2
22:02 59.0 °F 55.8 °F 29.82 in SSW 2.0 mph 4.0 mph 89% 0.00 in 0 W/m2
22:08 59.1 °F 55.9 °F 29.83 in WSW 2.0 mph 4.0 mph 89% 0.00 in 0 W/m2
22:14 59.2 °F 56.0 °F 29.83 in SSW 2.0 mph 3.0 mph 89% 0.00 in 0 W/m2
22:20 59.3 °F 56.1 °F 29.83 in WSW 2.0 mph 2.0 mph 89% 0.00 in 0 W/m2
22:26 59.4 °F 56.2 °F 29.82 in West 2.0 mph 3.0 mph 89% 0.00 in 0 W/m2
22:34 59.3 °F 55.7 °F 29.83 in SW 3.0 mph 3.0 mph 88% 0.00 in 0 W/m2
22:40 59.1 °F 55.5 °F 29.82 in WSW 2.0 mph 2.0 mph 88% 0.00 in 0 W/m2
22:46 59.1 °F 55.5 °F 29.82 in WSW 2.0 mph 2.0 mph 88% 0.00 in 0 W/m2
22:52 59.0 °F 55.8 °F 29.82 in WSW 1.0 mph 1.0 mph 89% 0.00 in 0 W/m2
22:58 59.0 °F 55.8 °F 29.82 in WSW 1.0 mph 1.0 mph 89% 0.00 in 0 W/m2
23:04 58.9 °F 55.7 °F 29.82 in SW 1.0 mph 2.0 mph 89% 0.00 in 0 W/m2
23:10 58.9 °F 55.7 °F 29.83 in West 2.0 mph 5.0 mph 89% 0.00 in 0 W/m2
23:18 59.0 °F 55.8 °F 29.82 in SW 3.0 mph 5.0 mph 89% 0.00 in 0 W/m2
23:24 59.0 °F 55.4 °F 29.82 in WSW 2.0 mph 4.0 mph 88% 0.00 in 0 W/m2
23:30 58.9 °F 55.4 °F 29.82 in WSW 2.0 mph 2.0 mph 88% 0.00 in 0 W/m2
23:32 58.9 °F 55.4 °F 29.82 in SW 1.0 mph 2.0 mph 88% 0.00 in 0 W/m2
23:38 58.8 °F 55.6 °F 29.82 in WSW 1.0 mph 2.0 mph 89% 0.00 in 0 W/m2
23:44 58.8 °F 55.6 °F 29.81 in SW 1.0 mph 2.0 mph 89% 0.00 in 0 W/m2
23:48 58.8 °F 55.6 °F 29.81 in WSW 1.0 mph 2.0 mph 89% 0.00 in 0 W/m2
23:54 58.9 °F 55.7 °F 29.81 in SSW 1.0 mph 4.0 mph 89% 0.00 in 0 W/m2
Country Meadow, Clay, NY, USA
Compliments of Weather Underground - 2 mb